Time;durP1;ratioP1;P1;durP2;ratioP2;P2;SDS_P1;SDS_P2;PMS_P1;PMS_P2;Temp;Humidity;BMP_temperature;BMP_pressure;BME280_temperature;BME280_humidity;BME280_pressure;Samples;Min_cycle;Max_cycle;Signal;HPM_P1;HPM_P2
2022/11/20 00:01:29;;;;;;;;;;;17.50;46.90;;;;;;8332574;28;19928;-44
2022/11/20 00:05:32;;;;;;;;;;;17.50;45.80;;;;;;8332549;28;20406;-44
2022/11/20 00:09:32;;;;;;;;;;;17.50;46.20;;;;;;8331756;28;19925;-44
2022/11/20 00:13:33;;;;;;;;;;;17.50;46.30;;;;;;8331958;28;20301;-45
2022/11/20 00:17:34;;;;;;;;;;;17.40;45.00;;;;;;8330970;28;20297;-45
2022/11/20 00:21:34;;;;;;;;;;;17.40;44.80;;;;;;8331277;28;19917;-45
2022/11/20 00:25:35;;;;;;;;;;;17.40;44.80;;;;;;8331824;28;19913;-45
2022/11/20 00:29:35;;;;;;;;;;;17.40;45.20;;;;;;8331829;28;19917;-46
2022/11/20 00:33:36;;;;;;;;;;;17.40;45.60;;;;;;8330959;28;19928;-44
2022/11/20 00:37:36;;;;;;;;;;;17.50;45.60;;;;;;8331547;28;19917;-44
2022/11/20 00:41:37;;;;;;;;;;;17.40;45.80;;;;;;8331094;28;19953;-43
2022/11/20 00:45:37;;;;;;;;;;;17.40;45.80;;;;;;8330618;28;19925;-44
2022/11/20 00:49:38;;;;;;;;;;;17.50;45.90;;;;;;8331118;28;19913;-44
2022/11/20 00:53:38;;;;;;;;;;;17.50;45.90;;;;;;8320109;28;20358;-44
2022/11/20 00:57:39;;;;;;;;;;;17.50;46.10;;;;;;8308991;28;19914;-44
2022/11/20 01:01:39;;;;;;;;;;;17.50;46.30;;;;;;8326470;28;19992;-45
2022/11/20 01:05:39;;;;;;;;;;;17.50;46.70;;;;;;8330526;28;20352;-43
2022/11/20 01:09:40;;;;;;;;;;;17.50;46.40;;;;;;8330019;28;20290;-43
2022/11/20 01:13:41;;;;;;;;;;;17.60;46.40;;;;;;8334480;28;19921;-44
2022/11/20 01:17:42;;;;;;;;;;;17.50;46.30;;;;;;8315679;28;19962;-43
2022/11/20 01:21:43;;;;;;;;;;;17.50;46.50;;;;;;8329775;28;19917;-44
2022/11/20 01:25:44;;;;;;;;;;;17.50;46.40;;;;;;8330397;28;19913;-43
2022/11/20 01:29:45;;;;;;;;;;;17.50;46.30;;;;;;8327383;28;19941;-43
2022/11/20 01:33:47;;;;;;;;;;;17.50;46.50;;;;;;8322576;28;19957;-44
2022/11/20 01:37:47;;;;;;;;;;;17.50;46.50;;;;;;8329767;28;19918;-45
2022/11/20 01:46:18;;;;;;;;;;;17.50;46.70;;;;;;8329975;28;19962;-45
2022/11/20 01:50:22;;;;;;;;;;;17.60;47.20;;;;;;8326513;28;20000;-45
2022/11/20 01:54:30;;;;;;;;;;;17.60;46.90;;;;;;8329230;28;19979;-44
2022/11/20 01:58:33;;;;;;;;;;;17.60;46.80;;;;;;8329804;28;20386;-45
2022/11/20 02:02:35;;;;;;;;;;;17.60;46.80;;;;;;8329534;28;19920;-44
2022/11/20 02:06:38;;;;;;;;;;;17.60;46.90;;;;;;8306398;28;20400;-43
2022/11/20 02:10:39;;;;;;;;;;;17.60;46.80;;;;;;8329704;28;19913;-45
2022/11/20 02:14:39;;;;;;;;;;;17.60;46.70;;;;;;8329632;28;20008;-44
2022/11/20 02:18:40;;;;;;;;;;;17.60;47.00;;;;;;8329033;28;20007;-45
2022/11/20 02:22:56;;;;;;;;;;;17.60;47.00;;;;;;8325429;28;19917;-45
2022/11/20 02:27:00;;;;;;;;;;;17.60;47.30;;;;;;8329114;28;19917;-44
2022/11/20 02:31:01;;;;;;;;;;;17.60;47.40;;;;;;8329080;28;19913;-43
2022/11/20 02:35:19;;;;;;;;;;;17.60;47.30;;;;;;8329097;28;19948;-44
2022/11/20 02:39:20;;;;;;;;;;;17.60;47.50;;;;;;8313239;28;20428;-42
2022/11/20 02:43:21;;;;;;;;;;;17.60;47.60;;;;;;8320772;28;19917;-43
2022/11/20 02:47:21;;;;;;;;;;;17.60;47.80;;;;;;8330408;28;20294;-44
2022/11/20 02:51:23;;;;;;;;;;;17.60;47.60;;;;;;8305251;28;20317;-43
2022/11/20 02:55:23;;;;;;;;;;;17.60;47.70;;;;;;8351486;28;20033;-43
2022/11/20 02:59:24;;;;;;;;;;;17.60;47.70;;;;;;8328121;28;19917;-44
2022/11/20 03:03:24;;;;;;;;;;;17.60;48.00;;;;;;8333761;28;19913;-42
2022/11/20 03:07:25;;;;;;;;;;;17.60;47.70;;;;;;8334013;28;19921;-43
2022/11/20 03:11:25;;;;;;;;;;;17.60;47.80;;;;;;8333482;28;20320;-45
2022/11/20 03:15:26;;;;;;;;;;;17.60;47.80;;;;;;8301237;28;19926;-43
2022/11/20 03:19:26;;;;;;;;;;;17.60;47.90;;;;;;8326594;28;19917;-45
2022/11/20 03:23:28;;;;;;;;;;;17.60;47.80;;;;;;8333689;28;19920;-43
2022/11/20 03:27:31;;;;;;;;;;;17.70;47.90;;;;;;8333148;28;19923;-43
2022/11/20 03:31:33;;;;;;;;;;;17.70;47.70;;;;;;8308762;28;20195;-44
2022/11/20 03:35:34;;;;;;;;;;;17.70;47.70;;;;;;8333408;28;19960;-44
2022/11/20 03:39:35;;;;;;;;;;;17.70;47.60;;;;;;8332798;28;20354;-44
2022/11/20 03:43:36;;;;;;;;;;;17.70;47.70;;;;;;8333148;28;19924;-44
2022/11/20 03:47:36;;;;;;;;;;;17.60;47.40;;;;;;8317858;28;20004;-45
2022/11/20 03:51:37;;;;;;;;;;;17.70;47.60;;;;;;8300442;28;19918;-42
2022/11/20 03:55:37;;;;;;;;;;;17.60;47.40;;;;;;8365932;28;20382;-42
2022/11/20 03:59:38;;;;;;;;;;;17.70;47.30;;;;;;8365460;28;20330;-45
2022/11/20 04:03:39;;;;;;;;;;;17.70;47.50;;;;;;8344312;28;19913;-43
2022/11/20 04:07:40;;;;;;;;;;;17.70;47.60;;;;;;8308066;28;20370;-43
2022/11/20 04:11:40;;;;;;;;;;;17.70;47.80;;;;;;8332320;28;19944;-43
2022/11/20 04:15:41;;;;;;;;;;;17.70;47.80;;;;;;8331715;28;20310;-43
2022/11/20 04:19:41;;;;;;;;;;;17.70;48.00;;;;;;8329820;28;19928;-43
2022/11/20 04:23:42;;;;;;;;;;;17.70;48.20;;;;;;8315081;28;20389;-44
2022/11/20 04:27:43;;;;;;;;;;;17.80;48.50;;;;;;8331273;28;19971;-44
2022/11/20 04:31:43;;;;;;;;;;;17.80;48.60;;;;;;8331719;28;19913;-44
2022/11/20 04:35:46;;;;;;;;;;;17.80;48.70;;;;;;8331181;28;19933;-43
2022/11/20 04:39:47;;;;;;;;;;;17.90;48.70;;;;;;8327304;28;19960;-43
2022/11/20 04:43:48;;;;;;;;;;;17.90;48.60;;;;;;8331362;28;19917;-43
2022/11/20 04:47:49;;;;;;;;;;;17.90;48.40;;;;;;8337899;28;20005;-42
2022/11/20 04:51:52;;;;;;;;;;;18.00;48.70;;;;;;8363735;28;19913;-44
2022/11/20 04:55:58;;;;;;;;;;;18.00;48.70;;;;;;8323117;28;19936;-44
2022/11/20 04:59:59;;;;;;;;;;;18.10;48.60;;;;;;8322691;28;20345;-44
2022/11/20 05:03:59;;;;;;;;;;;18.10;47.80;;;;;;8329713;28;19924;-44
2022/11/20 05:08:00;;;;;;;;;;;18.10;48.20;;;;;;8330109;28;20362;-46
2022/11/20 05:12:01;;;;;;;;;;;18.20;48.10;;;;;;8317583;28;19914;-44
2022/11/20 05:16:06;;;;;;;;;;;18.30;48.60;;;;;;8329375;28;19925;-45
2022/11/20 05:20:06;;;;;;;;;;;18.30;48.50;;;;;;8330203;28;19923;-44
2022/11/20 05:24:07;;;;;;;;;;;18.30;48.30;;;;;;8330106;28;19924;-44
2022/11/20 05:28:08;;;;;;;;;;;18.40;48.20;;;;;;8323861;28;20264;-45
2022/11/20 05:32:09;;;;;;;;;;;18.40;47.90;;;;;;8297877;28;19914;-45
2022/11/20 05:36:11;;;;;;;;;;;18.40;48.00;;;;;;8329699;28;19932;-44
2022/11/20 05:40:11;;;;;;;;;;;18.40;47.70;;;;;;8329963;28;19927;-46
2022/11/20 05:44:12;;;;;;;;;;;18.50;47.60;;;;;;8330113;28;19940;-46
2022/11/20 05:48:12;;;;;;;;;;;18.50;47.50;;;;;;8310348;28;19959;-47
2022/11/20 05:52:13;;;;;;;;;;;18.50;47.30;;;;;;8329603;28;19914;-45
2022/11/20 05:56:17;;;;;;;;;;;18.60;47.80;;;;;;8329739;28;19971;-49
2022/11/20 06:00:18;;;;;;;;;;;18.60;47.30;;;;;;8329910;28;20509;-44
2022/11/20 06:04:18;;;;;;;;;;;18.60;47.30;;;;;;8320758;28;19921;-46
2022/11/20 06:08:19;;;;;;;;;;;18.70;47.10;;;;;;8328363;28;19925;-49
2022/11/20 06:12:19;;;;;;;;;;;18.70;47.20;;;;;;8329867;28;19919;-52
2022/11/20 06:16:20;;;;;;;;;;;18.80;47.10;;;;;;8334089;28;19971;-44
2022/11/20 06:20:21;;;;;;;;;;;18.80;47.20;;;;;;8319940;28;19918;-47
2022/11/20 06:24:21;;;;;;;;;;;18.80;47.30;;;;;;8317146;28;20028;-45
2022/11/20 06:28:22;;;;;;;;;;;18.80;47.00;;;;;;8336111;28;20012;-46
2022/11/20 06:32:22;;;;;;;;;;;18.80;47.30;;;;;;8335687;28;20000;-46
2022/11/20 06:36:22;;;;;;;;;;;18.90;47.20;;;;;;8326996;28;19929;-45
2022/11/20 06:40:23;;;;;;;;;;;18.90;47.50;;;;;;8330207;28;19921;-48
2022/11/20 06:44:23;;;;;;;;;;;18.90;47.60;;;;;;8335059;28;19917;-47
2022/11/20 06:48:25;;;;;;;;;;;18.90;47.00;;;;;;8328439;28;19917;-47
2022/11/20 06:52:26;;;;;;;;;;;18.90;47.00;;;;;;8312782;28;19937;-46
2022/11/20 06:56:26;;;;;;;;;;;19.00;47.00;;;;;;8333526;28;20004;-46
2022/11/20 07:00:27;;;;;;;;;;;19.00;47.30;;;;;;8334018;28;19971;-47
2022/11/20 07:04:27;;;;;;;;;;;19.00;47.60;;;;;;8324908;28;20020;-46
2022/11/20 07:08:28;;;;;;;;;;;19.10;47.60;;;;;;8334361;28;19928;-45
2022/11/20 07:12:28;;;;;;;;;;;19.00;46.70;;;;;;8332372;28;19926;-46
2022/11/20 07:16:29;;;;;;;;;;;18.60;42.00;;;;;;8314382;28;19947;-46
2022/11/20 07:20:29;;;;;;;;;;;18.20;41.40;;;;;;8301687;28;20286;-45
2022/11/20 07:24:29;;;;;;;;;;;18.00;43.20;;;;;;8312396;28;19971;-46
2022/11/20 07:28:30;;;;;;;;;;;18.10;44.60;;;;;;8320242;28;19925;-48
2022/11/20 07:32:31;;;;;;;;;;;18.20;44.80;;;;;;8332260;28;19921;-45
2022/11/20 07:36:31;;;;;;;;;;;18.30;44.70;;;;;;8332846;28;19978;-47
2022/11/20 07:40:32;;;;;;;;;;;18.30;43.80;;;;;;8326847;28;19918;-49
2022/11/20 07:44:32;;;;;;;;;;;18.20;44.70;;;;;;8317611;28;20380;-45
2022/11/20 07:48:33;;;;;;;;;;;18.30;45.00;;;;;;8302218;28;19921;-45
2022/11/20 07:52:33;;;;;;;;;;;18.30;44.90;;;;;;8330531;28;19920;-45
2022/11/20 07:56:34;;;;;;;;;;;18.40;45.30;;;;;;8316969;28;20279;-47
2022/11/20 08:00:34;;;;;;;;;;;18.40;45.80;;;;;;8318862;28;19964;-46
2022/11/20 08:04:35;;;;;;;;;;;18.50;46.20;;;;;;8318903;28;19925;-46
2022/11/20 08:08:35;;;;;;;;;;;18.50;46.10;;;;;;8331300;28;19929;-48
2022/11/20 08:16:54;;;;;;;;;;;18.20;42.40;;;;;;8330700;28;20392;-45
2022/11/20 08:20:55;;;;;;;;;;;17.80;41.90;;;;;;8314524;28;19918;-49
2022/11/20 08:24:55;;;;;;;;;;;17.50;42.00;;;;;;8312149;28;19917;-47
2022/11/20 08:28:56;;;;;;;;;;;17.40;43.60;;;;;;8332432;28;19917;-48
2022/11/20 08:33:04;;;;;;;;;;;17.40;45.00;;;;;;8332093;28;19913;-47
2022/11/20 08:37:05;;;;;;;;;;;17.50;45.60;;;;;;8330618;28;19925;-48
2022/11/20 08:41:24;;;;;;;;;;;17.60;44.70;;;;;;8331637;28;20396;-46
2022/11/20 08:45:24;;;;;;;;;;;17.70;44.80;;;;;;8330911;28;19917;-46
2022/11/20 08:49:25;;;;;;;;;;;17.70;44.50;;;;;;8331731;28;19940;-47
2022/11/20 08:53:26;;;;;;;;;;;17.80;44.60;;;;;;8331379;28;19920;-49
2022/11/20 08:57:26;;;;;;;;;;;17.80;44.50;;;;;;8330367;28;20394;-46
2022/11/20 09:01:27;;;;;;;;;;;17.80;44.60;;;;;;8331003;28;19917;-46
2022/11/20 09:05:28;;;;;;;;;;;17.80;44.50;;;;;;8330988;28;19949;-46
2022/11/20 09:09:28;;;;;;;;;;;17.80;44.90;;;;;;8330277;28;19921;-46
2022/11/20 09:13:29;;;;;;;;;;;17.80;44.80;;;;;;8330879;28;19918;-47
2022/11/20 09:17:30;;;;;;;;;;;17.80;45.20;;;;;;8330577;28;19925;-47
2022/11/20 09:21:30;;;;;;;;;;;17.80;45.30;;;;;;8329825;28;19999;-47
2022/11/20 09:25:31;;;;;;;;;;;17.80;45.40;;;;;;8328680;28;19921;-47
2022/11/20 09:29:31;;;;;;;;;;;17.80;45.50;;;;;;8330291;28;20286;-45
2022/11/20 09:33:32;;;;;;;;;;;17.80;45.50;;;;;;8329674;28;19913;-46
2022/11/20 09:37:32;;;;;;;;;;;17.80;45.40;;;;;;8329811;28;19929;-47
2022/11/20 09:41:55;;;;;;;;;;;17.80;45.40;;;;;;8330327;28;19925;-46
2022/11/20 09:46:05;;;;;;;;;;;17.80;45.40;;;;;;8329641;28;19921;-46
2022/11/20 09:50:24;;;;;;;;;;;17.80;45.40;;;;;;8333086;28;19983;-46
2022/11/20 09:54:33;;;;;;;;;;;17.70;45.40;;;;;;8336118;28;19929;-46
2022/11/20 09:58:37;;;;;;;;;;;17.70;46.00;;;;;;8335363;28;19921;-46
2022/11/20 10:02:58;;;;;;;;;;;17.80;45.50;;;;;;8336417;28;20325;-46
2022/11/20 10:07:13;;;;;;;;;;;17.70;45.50;;;;;;8335602;28;19921;-47
2022/11/20 10:11:18;;;;;;;;;;;17.80;45.60;;;;;;8335997;28;19921;-47
2022/11/20 10:15:27;;;;;;;;;;;17.70;45.50;;;;;;8335831;28;19921;-45
2022/11/20 10:19:39;;;;;;;;;;;17.80;45.60;;;;;;8335416;28;19971;-46
2022/11/20 10:23:49;;;;;;;;;;;17.70;45.50;;;;;;8335741;28;20298;-46
2022/11/20 10:27:50;;;;;;;;;;;17.70;45.50;;;;;;8334965;28;20392;-46
2022/11/20 10:31:52;;;;;;;;;;;17.70;45.50;;;;;;8334995;28;19929;-47
2022/11/20 10:36:03;;;;;;;;;;;17.70;45.60;;;;;;8335181;28;19921;-47
2022/11/20 10:40:10;;;;;;;;;;;17.70;45.60;;;;;;8334756;28;20004;-47
2022/11/20 10:45:00;;;;;;;;;;;17.70;45.50;;;;;;8335275;28;19920;-46
2022/11/20 10:48:38;;;;;;;;;;;17.70;45.50;;;;;;8334509;28;20374;-46
2022/11/20 10:52:41;;;;;;;;;;;17.70;45.50;;;;;;8334449;28;19924;-45
2022/11/20 10:56:45;;;;;;;;;;;17.70;45.60;;;;;;8334153;28;19928;-46
2022/11/20 11:00:46;;;;;;;;;;;17.70;45.50;;;;;;8332677;28;19924;-45
2022/11/20 11:04:47;;;;;;;;;;;17.70;45.60;;;;;;8334507;28;19957;-46
2022/11/20 11:08:49;;;;;;;;;;;17.70;45.60;;;;;;8334103;28;19921;-46
2022/11/20 11:12:49;;;;;;;;;;;17.70;45.60;;;;;;8332865;28;19953;-46
2022/11/20 11:16:54;;;;;;;;;;;17.80;45.60;;;;;;8333755;28;19932;-45
2022/11/20 11:20:56;;;;;;;;;;;17.70;45.50;;;;;;8334023;28;19920;-46
2022/11/20 11:24:56;;;;;;;;;;;17.70;45.50;;;;;;8333238;28;19918;-46
2022/11/20 11:28:58;;;;;;;;;;;17.70;45.50;;;;;;8334123;28;19913;-46
2022/11/20 11:33:02;;;;;;;;;;;17.70;45.50;;;;;;8333432;28;20408;-47
2022/11/20 11:37:03;;;;;;;;;;;17.70;45.50;;;;;;8332890;28;20294;-47
2022/11/20 11:41:04;;;;;;;;;;;17.70;45.50;;;;;;8333129;28;19921;-46
2022/11/20 11:45:05;;;;;;;;;;;17.70;45.50;;;;;;8333059;28;19918;-47
2022/11/20 11:49:08;;;;;;;;;;;17.70;45.60;;;;;;8332771;28;19956;-45
2022/11/20 11:53:12;;;;;;;;;;;17.70;45.60;;;;;;8332816;28;20011;-46
2022/11/20 11:57:22;;;;;;;;;;;17.70;45.60;;;;;;8332688;28;19967;-46
2022/11/20 12:01:42;;;;;;;;;;;17.70;45.60;;;;;;8332274;28;20285;-48
2022/11/20 12:05:48;;;;;;;;;;;17.70;45.60;;;;;;8332630;28;19972;-45
2022/11/20 12:09:51;;;;;;;;;;;17.70;45.60;;;;;;8332209;28;19925;-46
2022/11/20 12:14:03;;;;;;;;;;;17.70;45.60;;;;;;8331944;28;19918;-46
2022/11/20 12:18:09;;;;;;;;;;;17.70;45.60;;;;;;8335783;28;19944;-45
2022/11/20 12:22:28;;;;;;;;;;;17.70;45.60;;;;;;8331530;28;20297;-45
2022/11/20 12:26:29;;;;;;;;;;;17.70;45.60;;;;;;8331463;28;20297;-45
2022/11/20 12:30:32;;;;;;;;;;;17.70;45.60;;;;;;8330299;28;21382;-45
2022/11/20 12:34:52;;;;;;;;;;;17.70;45.60;;;;;;8331727;28;19925;-46
2022/11/20 12:39:06;;;;;;;;;;;17.70;45.60;;;;;;8331294;28;19917;-46
2022/11/20 12:47:47;;;;;;;;;;;17.70;45.60;;;;;;8331200;28;19925;-46
2022/11/20 12:51:51;;;;;;;;;;;17.70;45.60;;;;;;8330447;28;19917;-45
2022/11/20 12:56:10;;;;;;;;;;;17.60;45.60;;;;;;8330733;28;19925;-46
2022/11/20 13:00:15;;;;;;;;;;;17.70;45.60;;;;;;8330901;28;19912;-46
2022/11/20 13:04:15;;;;;;;;;;;17.60;45.50;;;;;;8330487;28;19917;-46
2022/11/20 13:08:23;;;;;;;;;;;17.60;45.60;;;;;;8330269;28;19999;-46
2022/11/20 13:12:35;;;;;;;;;;;17.70;45.60;;;;;;8330027;28;19924;-46
2022/11/20 13:16:50;;;;;;;;;;;17.70;45.60;;;;;;8330233;28;20397;-46
2022/11/20 13:20:51;;;;;;;;;;;17.70;45.60;;;;;;8330374;28;20286;-47
2022/11/20 13:24:52;;;;;;;;;;;17.70;45.60;;;;;;8329392;28;20032;-47
2022/11/20 13:29:12;;;;;;;;;;;17.60;45.60;;;;;;8330377;28;19928;-49
2022/11/20 13:33:22;;;;;;;;;;;17.70;45.60;;;;;;8319370;28;20000;-46
2022/11/20 13:37:38;;;;;;;;;;;17.60;45.60;;;;;;8329888;28;19983;-47
2022/11/20 13:41:39;;;;;;;;;;;17.60;45.60;;;;;;8330097;28;19913;-47
2022/11/20 13:45:40;;;;;;;;;;;17.60;45.60;;;;;;8329454;28;19924;-46
2022/11/20 13:49:41;;;;;;;;;;;17.60;45.50;;;;;;8329923;28;19971;-45
2022/11/20 13:53:56;;;;;;;;;;;17.60;45.60;;;;;;8329880;28;19957;-47
2022/11/20 13:57:56;;;;;;;;;;;17.60;45.60;;;;;;8328901;28;19932;-46
2022/11/20 14:01:57;;;;;;;;;;;17.60;45.50;;;;;;8329391;28;19914;-46
2022/11/20 14:06:05;;;;;;;;;;;17.60;45.50;;;;;;8329604;28;20350;-46
2022/11/20 14:10:19;;;;;;;;;;;17.60;45.60;;;;;;8328424;28;20392;-46
2022/11/20 14:14:21;;;;;;;;;;;17.60;45.60;;;;;;8326558;28;19925;-46
2022/11/20 14:18:21;;;;;;;;;;;17.60;45.60;;;;;;8328648;28;20024;-42
2022/11/20 14:22:26;;;;;;;;;;;17.60;45.60;;;;;;8329309;28;20309;-45
2022/11/20 14:26:26;;;;;;;;;;;17.60;45.60;;;;;;8329292;28;20378;-45
2022/11/20 14:30:28;;;;;;;;;;;17.60;45.70;;;;;;8328856;28;19921;-45
2022/11/20 14:34:30;;;;;;;;;;;17.60;45.70;;;;;;8329579;28;19925;-45
2022/11/20 14:38:31;;;;;;;;;;;17.60;45.70;;;;;;8334866;28;20354;-44
2022/11/20 14:42:33;;;;;;;;;;;17.60;45.60;;;;;;8334550;28;20441;-44
2022/11/20 14:46:33;;;;;;;;;;;17.60;45.60;;;;;;8334696;28;19947;-45
2022/11/20 14:50:34;;;;;;;;;;;17.60;45.60;;;;;;8334660;28;20327;-45
2022/11/20 14:54:42;;;;;;;;;;;17.60;45.70;;;;;;8333820;28;20012;-45
2022/11/20 14:58:43;;;;;;;;;;;17.60;45.70;;;;;;8334985;28;19952;-45
2022/11/20 15:02:47;;;;;;;;;;;17.60;45.60;;;;;;8334306;28;19950;-45
2022/11/20 15:06:53;;;;;;;;;;;17.60;45.50;;;;;;8333614;28;19921;-45
2022/11/20 15:10:53;;;;;;;;;;;17.60;45.60;;;;;;8334511;28;19963;-45
2022/11/20 15:14:55;;;;;;;;;;;17.60;45.70;;;;;;8334519;28;20259;-46
2022/11/20 15:18:55;;;;;;;;;;;17.50;45.60;;;;;;8333618;28;19924;-46
2022/11/20 15:22:56;;;;;;;;;;;17.50;45.60;;;;;;8344357;28;19962;-45
2022/11/20 15:26:56;;;;;;;;;;;17.50;45.60;;;;;;8360620;28;19995;-45
2022/11/20 15:30:57;;;;;;;;;;;17.50;45.60;;;;;;8333404;28;20378;-45
2022/11/20 15:34:57;;;;;;;;;;;17.50;45.60;;;;;;8333694;28;19932;-45
2022/11/20 15:38:57;;;;;;;;;;;17.50;45.60;;;;;;8333277;28;20307;-45
2022/11/20 15:43:05;;;;;;;;;;;17.50;45.60;;;;;;8332673;28;20383;-46
2022/11/20 15:47:07;;;;;;;;;;;17.50;45.60;;;;;;8332714;28;19921;-45
2022/11/20 15:51:10;;;;;;;;;;;17.50;45.60;;;;;;8333447;28;19917;-46
2022/11/20 15:55:11;;;;;;;;;;;17.50;45.60;;;;;;8332248;28;19925;-46
2022/11/20 15:59:13;;;;;;;;;;;17.50;45.60;;;;;;8332633;28;20378;-46
2022/11/20 16:03:15;;;;;;;;;;;17.50;45.60;;;;;;8332411;28;19917;-46
2022/11/20 16:07:15;;;;;;;;;;;17.50;45.60;;;;;;8331615;28;20538;-47
2022/11/20 16:11:17;;;;;;;;;;;17.50;45.70;;;;;;8332408;28;19913;-46
2022/11/20 16:19:36;;;;;;;;;;;17.40;45.60;;;;;;8323437;28;19927;-46
2022/11/20 16:23:44;;;;;;;;;;;17.40;45.70;;;;;;8331091;28;19917;-47
2022/11/20 16:27:45;;;;;;;;;;;17.50;46.10;;;;;;8322353;28;19924;-47
2022/11/20 16:31:45;;;;;;;;;;;17.50;46.30;;;;;;8312761;28;19989;-46
2022/11/20 16:35:51;;;;;;;;;;;17.60;46.20;;;;;;8301103;28;19922;-48
2022/11/20 16:39:52;;;;;;;;;;;17.60;46.20;;;;;;8350607;28;20000;-46
2022/11/20 16:43:53;;;;;;;;;;;17.60;46.60;;;;;;8362664;28;20450;-47
2022/11/20 16:47:54;;;;;;;;;;;17.60;46.60;;;;;;8345461;28;19927;-47
2022/11/20 16:51:54;;;;;;;;;;;17.60;46.60;;;;;;8317895;28;19913;-47
2022/11/20 16:55:55;;;;;;;;;;;17.70;46.30;;;;;;8330768;28;19975;-45
2022/11/20 16:59:56;;;;;;;;;;;17.70;46.40;;;;;;8329917;28;19943;-45
2022/11/20 17:03:57;;;;;;;;;;;17.70;46.40;;;;;;8330015;28;19917;-46
2022/11/20 17:07:58;;;;;;;;;;;17.70;46.20;;;;;;8320978;28;19921;-47
2022/11/20 17:11:58;;;;;;;;;;;17.80;46.30;;;;;;8328960;28;20352;-49
2022/11/20 17:16:06;;;;;;;;;;;17.80;46.40;;;;;;8322797;28;19929;-47
2022/11/20 17:20:07;;;;;;;;;;;17.80;46.40;;;;;;8323428;28;19936;-45
2022/11/20 17:24:09;;;;;;;;;;;17.80;46.30;;;;;;8330165;28;19924;-46
2022/11/20 17:28:09;;;;;;;;;;;17.80;46.30;;;;;;8329674;28;19928;-46
2022/11/20 17:32:10;;;;;;;;;;;17.80;46.30;;;;;;8329741;28;20008;-46
2022/11/20 17:36:11;;;;;;;;;;;17.80;46.40;;;;;;8329176;28;20357;-45
2022/11/20 17:40:12;;;;;;;;;;;17.80;46.40;;;;;;8329249;28;19967;-46
2022/11/20 17:44:12;;;;;;;;;;;17.90;46.30;;;;;;8329570;28;19921;-45
2022/11/20 17:48:13;;;;;;;;;;;17.90;46.40;;;;;;8329601;28;19928;-46
2022/11/20 17:52:13;;;;;;;;;;;17.90;46.40;;;;;;8329073;28;19917;-45
2022/11/20 18:00:33;;;;;;;;;;;17.90;46.30;;;;;;8328999;28;19979;-45
2022/11/20 18:04:33;;;;;;;;;;;17.90;46.30;;;;;;8327103;28;19922;-47
2022/11/20 18:08:34;;;;;;;;;;;18.00;46.30;;;;;;8317589;28;20286;-47
2022/11/20 18:12:35;;;;;;;;;;;18.00;46.20;;;;;;8334245;28;19914;-46
2022/11/20 18:16:36;;;;;;;;;;;18.00;46.20;;;;;;8335997;28;20444;-46
2022/11/20 18:20:37;;;;;;;;;;;18.00;46.30;;;;;;8335665;28;19917;-45
2022/11/20 18:24:38;;;;;;;;;;;18.00;46.30;;;;;;8334172;28;19924;-46
2022/11/20 18:28:38;;;;;;;;;;;18.00;46.30;;;;;;8335743;28;20067;-47
2022/11/20 18:32:39;;;;;;;;;;;18.00;46.30;;;;;;8335267;28;19913;-46
2022/11/20 18:36:41;;;;;;;;;;;18.00;46.40;;;;;;8334800;28;19921;-44
2022/11/20 18:40:42;;;;;;;;;;;18.00;46.50;;;;;;8334728;28;19964;-45
2022/11/20 18:44:53;;;;;;;;;;;18.00;46.50;;;;;;8334659;28;20000;-45
2022/11/20 18:48:53;;;;;;;;;;;18.00;46.60;;;;;;8321657;28;20005;-45
2022/11/20 18:52:54;;;;;;;;;;;18.00;46.60;;;;;;8328125;28;19925;-46
2022/11/20 18:56:54;;;;;;;;;;;18.00;46.50;;;;;;8334309;28;19961;-46
2022/11/20 19:00:55;;;;;;;;;;;18.00;46.50;;;;;;8316901;28;20294;-45
2022/11/20 19:04:55;;;;;;;;;;;18.00;46.50;;;;;;8320508;28;19917;-46
2022/11/20 19:08:56;;;;;;;;;;;18.00;46.40;;;;;;8334107;28;19921;-46
2022/11/20 19:12:57;;;;;;;;;;;18.00;46.30;;;;;;8333464;28;20008;-45
2022/11/20 19:16:57;;;;;;;;;;;18.00;46.50;;;;;;8318826;28;20008;-44
2022/11/20 19:21:05;;;;;;;;;;;18.00;46.60;;;;;;8327041;28;20289;-45
2022/11/20 19:25:06;;;;;;;;;;;18.00;46.60;;;;;;8333062;28;19992;-48
2022/11/20 19:29:06;;;;;;;;;;;18.00;46.60;;;;;;8323764;28;19918;-48
2022/11/20 19:33:07;;;;;;;;;;;18.10;46.60;;;;;;8333419;28;19920;-47
2022/11/20 19:37:08;;;;;;;;;;;18.10;46.70;;;;;;8332862;28;19944;-46
2022/11/20 19:41:09;;;;;;;;;;;18.10;46.60;;;;;;8332803;28;19924;-47
2022/11/20 19:45:09;;;;;;;;;;;18.10;46.60;;;;;;8328182;28;19917;-47
2022/11/20 19:49:11;;;;;;;;;;;18.10;46.60;;;;;;8321236;28;19924;-46
2022/11/20 19:53:12;;;;;;;;;;;18.10;46.70;;;;;;8302224;28;19914;-46
2022/11/20 19:57:12;;;;;;;;;;;18.00;46.50;;;;;;8319185;28;19928;-47
2022/11/20 20:01:14;;;;;;;;;;;18.10;46.60;;;;;;8324557;28;19921;-45
2022/11/20 20:05:14;;;;;;;;;;;18.10;46.60;;;;;;8320454;28;19982;-45
2022/11/20 20:09:15;;;;;;;;;;;18.10;46.70;;;;;;8319931;28;19967;-46
2022/11/20 20:13:15;;;;;;;;;;;18.10;46.40;;;;;;8331689;28;19960;-48
2022/11/20 20:17:16;;;;;;;;;;;18.10;46.10;;;;;;8332222;28;19925;-46
2022/11/20 20:21:17;;;;;;;;;;;18.00;46.00;;;;;;8332136;28;19962;-45
2022/11/20 20:25:18;;;;;;;;;;;18.00;46.30;;;;;;8330275;28;19920;-45
2022/11/20 20:29:21;;;;;;;;;;;18.00;46.20;;;;;;8331816;28;19971;-46
2022/11/20 20:33:22;;;;;;;;;;;17.90;46.20;;;;;;8331230;28;19920;-47
2022/11/20 20:37:22;;;;;;;;;;;17.90;46.10;;;;;;8331757;28;20389;-47
2022/11/20 20:41:23;;;;;;;;;;;17.90;46.00;;;;;;8331418;28;20435;-47
2022/11/20 20:45:24;;;;;;;;;;;17.90;46.00;;;;;;8330751;28;19925;-46
2022/11/20 20:49:24;;;;;;;;;;;17.90;46.00;;;;;;8331321;28;20328;-45
2022/11/20 20:53:26;;;;;;;;;;;17.80;46.00;;;;;;8331290;28;19917;-46
2022/11/20 20:57:27;;;;;;;;;;;17.80;46.00;;;;;;8330734;28;19922;-46
2022/11/20 21:01:28;;;;;;;;;;;17.80;46.00;;;;;;8330700;28;19945;-47
2022/11/20 21:05:28;;;;;;;;;;;17.80;46.00;;;;;;8330801;28;20274;-46
2022/11/20 21:09:28;;;;;;;;;;;17.80;46.00;;;;;;8330035;28;19932;-45
2022/11/20 21:13:29;;;;;;;;;;;17.70;46.00;;;;;;8331101;28;19913;-46
2022/11/20 21:17:30;;;;;;;;;;;17.70;46.10;;;;;;8330431;28;19925;-47
2022/11/20 21:25:49;;;;;;;;;;;17.70;46.00;;;;;;8329639;28;19940;-46
2022/11/20 21:29:49;;;;;;;;;;;17.70;46.00;;;;;;8330442;28;19921;-47
2022/11/20 21:33:51;;;;;;;;;;;17.70;46.00;;;;;;8329670;28;19914;-47
2022/11/20 21:37:51;;;;;;;;;;;17.70;46.00;;;;;;8330180;28;19921;-45
2022/11/20 21:41:52;;;;;;;;;;;17.60;45.90;;;;;;8330118;28;20317;-46
2022/11/20 21:45:55;;;;;;;;;;;17.60;45.90;;;;;;8332361;28;20382;-46
2022/11/20 21:49:55;;;;;;;;;;;17.60;45.90;;;;;;8336969;28;19918;-45
2022/11/20 21:53:56;;;;;;;;;;;17.60;45.90;;;;;;8336607;28;20366;-46
2022/11/20 21:57:57;;;;;;;;;;;17.60;45.90;;;;;;8335999;28;19927;-45
2022/11/20 22:01:57;;;;;;;;;;;17.60;46.00;;;;;;8336335;28;19924;-45
2022/11/20 22:05:58;;;;;;;;;;;17.60;46.00;;;;;;8336199;28;19929;-45
2022/11/20 22:09:58;;;;;;;;;;;17.60;46.00;;;;;;8335514;28;19952;-45
2022/11/20 22:18:21;;;;;;;;;;;17.50;46.00;;;;;;8339073;28;19927;-46
2022/11/20 22:22:21;;;;;;;;;;;17.60;46.00;;;;;;8335426;28;19963;-46
2022/11/20 22:26:23;;;;;;;;;;;17.50;45.90;;;;;;8335762;28;19917;-46
2022/11/20 22:30:24;;;;;;;;;;;17.50;46.00;;;;;;8335138;28;20400;-46
2022/11/20 22:34:25;;;;;;;;;;;17.50;45.90;;;;;;8335566;28;20476;-47
2022/11/20 22:38:25;;;;;;;;;;;17.50;45.90;;;;;;8335481;28;19945;-45
2022/11/20 22:42:26;;;;;;;;;;;17.50;45.90;;;;;;8334587;28;19923;-46
2022/11/20 22:46:28;;;;;;;;;;;17.50;45.90;;;;;;8335054;28;19963;-46
2022/11/20 22:50:28;;;;;;;;;;;17.50;45.90;;;;;;8335186;28;20207;-48
2022/11/20 22:54:29;;;;;;;;;;;17.50;45.90;;;;;;8334460;28;19921;-45
2022/11/20 22:58:30;;;;;;;;;;;17.50;45.90;;;;;;8334007;28;19913;-45
2022/11/20 23:02:30;;;;;;;;;;;17.40;45.90;;;;;;8333830;28;19921;-46
2022/11/20 23:06:34;;;;;;;;;;;17.50;46.00;;;;;;8333919;28;19985;-46
2022/11/20 23:10:34;;;;;;;;;;;17.40;46.00;;;;;;8333369;28;19925;-47
2022/11/20 23:14:35;;;;;;;;;;;17.40;45.90;;;;;;8334438;28;20387;-46
2022/11/20 23:18:36;;;;;;;;;;;17.40;45.90;;;;;;8332723;28;20370;-45
2022/11/20 23:22:36;;;;;;;;;;;17.40;45.90;;;;;;8333983;28;19925;-45
2022/11/20 23:26:38;;;;;;;;;;;17.40;45.90;;;;;;8333817;28;19917;-46
2022/11/20 23:30:38;;;;;;;;;;;17.40;45.90;;;;;;8333345;28;19917;-47
2022/11/20 23:34:39;;;;;;;;;;;17.40;45.90;;;;;;8333808;28;20332;-45
2022/11/20 23:38:39;;;;;;;;;;;17.40;46.00;;;;;;8333649;28;20004;-45
2022/11/20 23:43:13;;;;;;;;;;;17.40;46.00;;;;;;8333148;28;19924;-47
2022/11/20 23:47:00;;;;;;;;;;;17.40;46.00;;;;;;8333111;28;20000;-45
2022/11/20 23:51:01;;;;;;;;;;;17.40;45.90;;;;;;8333095;28;19967;-46
2022/11/20 23:55:02;;;;;;;;;;;17.40;45.90;;;;;;8332328;28;20386;-45
2022/11/20 23:59:04;;;;;;;;;;;17.40;46.00;;;;;;8332988;28;20192;-48
